Shelby County Airport
KEET : now visible

Airfield :











YOU CAN JOIN US ON...

 
LOGIN :

Register | Disclaimer

   EN    FR    IT 

 









Legend :    VFR   Marginal VFR   IFR   Intensive IFR   Very Intensive IFR
Visi :
Ceiling :
>= 8 km
>= 3000ft
5 to 8 km
1000 to 3000 ft
1500m to 5 km
500 to 1000 ft
800 to 1500m
200 to 500 ft
< 800m
< 200 ft
Symbols :   Thunderstorms  Fog  Heavy snow  Heavy precipitations  Wind > 20 kt






- Airport Elevation : 586 ft


KEET - Shelby County

CURRENT METAR :
  • 122253Z AUTO 15003KT 10SM CLR 22/21 A2981 RMK AO2 SLP089 T02220211

EXPIRED METARs :
  • 122153Z AUTO 18003KT 10SM SCT007 22/21 A2983 RMK AO2 SLP095 T02170206
  • 122110Z AUTO 15006KT 10SM SCT008 22/21 A2985 RMK AO2 T02170206
  • 122053Z AUTO 11003KT 10SM SCT010 22/21 A2984 RMK AO2 LTG DSNT E-SW SLP098 60073 T02170206 58006
  • 122040Z AUTO VRB03KT 10SM BKN010 22/21 A2984 RMK AO2 LTG DSNT S AND SW CIG 007V013 T02170206

TAF KEET
Valid from the 12 at 19:00 until the 13 at 18:00 UTC


121902Z 1219/1318 33020G30KT 1SM +TSRA BKN040CB
FM122000 14009KT P6SM SHRA VCTS SCT015 BKN040CB
FM122300 26007KT P6SM SHRA BKN050
FM130100 00000KT P6SM SCT020
KZTL FIR / North America



MET'MAP, your aeronautical weather chart ! - Copyright ORBIFLY December 2007 - Disclaimer

ORBIFLY MET'MAP TEAM :

Programming & Development : Alexandra Zaïnal
Concept & original design : Baudouin d'Aumeries
Assistance for programming : Marc-Olivier Méhu
Technical & hardware support : Manuel Goepfert

Contact : metmap@orbifly.com




SOURCES & CREDITS :

   NOAA       Earth
Advisory